DW1415 Weather Reports


Display with metric or nautical units.
time (UTC)temp
F
wind
direction
speed
MPH
gust
MPH
rain 1hr
in
rain 24hr
in
rain mn
in
humidity
%
barometer
mb
20181018200503 51 120 1.0 5.0 0.00 0.00 0.00 35 1026.7
20181018200004 51 182 2.0 5.0 0.00 0.00 0.00 35 1027.0
20181018195504 52 115 0.0 5.0 0.00 0.00 0.00 36 1027.0
20181018195004 52 270 1.0 6.0 0.00 0.00 0.00 36 1027.0
20181018194504 52 277 2.0 6.0 0.00 0.00 0.00 35 1026.9
20181018194003 52 231 2.0 7.0 0.00 0.00 0.00 35 1027.0
20181018193504 52 214 2.0 8.0 0.00 0.00 0.00 35 1027.0
20181018193004 52 204 3.0 9.0 0.00 0.00 0.00 35 1027.0
20181018192503 52 273 3.0 9.0 0.00 0.00 0.00 35 1027.4
20181018192004 52 211 1.0 6.0 0.00 0.00 0.00 36 1027.2
20181018191504 52 210 0.0 10.0 0.00 0.00 0.00 35 1027.4
20181018191004 52 242 2.0 10.0 0.00 0.00 0.00 35 1027.4
20181018190503 52 230 1.0 8.0 0.00 0.00 0.00 35 1027.4
20181018190004 52 213 1.0 6.0 0.00 0.00 0.00 35 1027.4
20181018185504 52 254 1.0 14.0 0.00 0.00 0.00 35 1027.4
20181018185005 52 196 5.0 14.0 0.00 0.00 0.00 34 1027.7
20181018184504 52 257 2.0 8.0 0.00 0.00 0.00 34 1027.4
20181018184004 53 328 1.0 7.0 0.00 0.00 0.00 35 1027.4
20181018183504 52 216 1.0 6.0 0.00 0.00 0.00 35 1027.7
20181018183004 52 174 1.0 9.0 0.00 0.00 0.00 36 1027.7
20181018182504 52 190 3.0 9.0 0.00 0.00 0.00 34 1027.7
20181018182004 52 227 2.0 12.0 0.00 0.00 0.00 34 1027.7
20181018181503 53 222 5.0 12.0 0.00 0.00 0.00 34 1027.7
20181018181004 53 241 3.0 7.0 0.00 0.00 0.00 34 1027.7
20181018180503 53 220 3.0 7.0 0.00 0.00 0.00 34 1028.1
20181018180004 52 296 0.0 7.0 0.00 0.00 0.00 34 1028.1
20181018175504 52 268 0.0 9.0 0.00 0.00 0.00 34 1027.9
20181018175004 53 203 3.0 9.0 0.00 0.00 0.00 33 1027.9
20181018174504 53 263 1.0 7.0 0.00 0.00 0.00 34 1028.1
20181018174004 53 225 1.0 7.0 0.00 0.00 0.00 34 1028.1
20181018173503 53 145 2.0 8.0 0.00 0.00 0.00 34 1028.1
20181018173004 52 258 1.0 8.0 0.00 0.00 0.00 34 1028.1
20181018172504 52 225 1.0 8.0 0.00 0.00 0.00 34 1028.1
20181018172004 52 230 4.0 8.0 0.00 0.00 0.00 34 1028.1
20181018171503 52 198 2.0 8.0 0.00 0.00 0.00 34 1028.1
20181018171004 52 114 2.0 7.0 0.00 0.00 0.00 33 1028.1
20181018170504 52 197 5.0 8.0 0.00 0.00 0.00 33 1028.4
20181018170004 52 241 2.0 10.0 0.00 0.00 0.00 34 1028.4
20181018165503 52 336 3.0 10.0 0.00 0.00 0.00 33 1028.4
20181018165004 53 262 3.0 10.0 0.00 0.00 0.00 33 1028.4
20181018164504 53 236 2.0 10.0 0.00 0.00 0.00 33 1028.4
20181018164004 53 203 5.0 10.0 0.00 0.00 0.00 32 1028.4
20181018163504 54 232 2.0 10.0 0.00 0.00 0.00 32 1028.4
20181018163003 54 225 1.0 15.0 0.00 0.00 0.00 32 1028.4
20181018162503 55 190 1.0 15.0 0.00 0.00 0.00 33 1028.4
20181018162004 55 320 1.0 8.0 0.00 0.00 0.00 33 1028.4
20181018161503 55 231 2.0 7.0 0.00 0.00 0.00 34 1028.4
20181018161005 55 279 2.0 8.0 0.00 0.00 0.00 33 1028.7
20181018160504 55 228 5.0 8.0 0.00 0.00 0.00 33 1028.7
20181018160004 54 288 2.0 10.0 0.00 0.00 0.00 33 1028.7
20181018155503 55 248 3.0 10.0 0.00 0.00 0.00 32 1028.7
20181018155004 55 232 1.0 9.0 0.00 0.00 0.00 33 1028.7
20181018154504 56 231 2.0 9.0 0.00 0.00 0.00 33 1028.7
20181018154003 56 238 2.0 9.0 0.00 0.00 0.00 33 1028.5
20181018153504 56 228 3.0 9.0 0.00 0.00 0.00 32 1028.7
20181018153005 56 281 4.0 9.0 0.00 0.00 0.00 32 1028.7
20181018152503 56 233 1.0 12.0 0.00 0.00 0.00 35 1028.7
20181018152004 55 198 5.0 12.0 0.00 0.00 0.00 33 1028.9
20181018151503 56 224 6.0 9.0 0.00 0.00 0.00 33 1029.1
20181018151004 55 257 1.0 9.0 0.00 0.00 0.00 33 1028.7
20181018150504 55 216 6.0 9.0 0.00 0.00 0.00 33 1028.7
20181018150004 55 245 3.0 12.0 0.00 0.00 0.00 33 1028.7
20181018145504 56 224 2.0 12.0 0.00 0.00 0.00 33 1028.7
20181018145004 57 222 7.0 10.0 0.00 0.00 0.00 32 1028.7
20181018144503 58 210 3.0 8.0 0.00 0.00 0.00 34 1028.7
20181018144004 56 232 1.0 7.0 0.00 0.00 0.00 35 1028.7
20181018143504 57 236 3.0 12.0 0.00 0.00 0.00 33 1028.7
20181018143004 57 238 6.0 12.0 0.00 0.00 0.00 34 1028.7
20181018142503 56 224 1.0 9.0 0.00 0.00 0.00 36 1028.7
20181018142004 56 204 2.0 13.0 0.00 0.00 0.00 35 1028.7
20181018141504 55 241 2.0 13.0 0.00 0.00 0.00 37 1028.7
20181018141003 54 253 2.0 8.0 0.00 0.00 0.00 37 1028.7
20181018140504 53 208 3.0 21.0 0.00 0.00 0.00 37 1028.7
20181018140004 53 217 7.0 21.0 0.00 0.00 0.00 37 1028.7
20181018135503 53 226 2.0 12.0 0.00 0.00 0.00 38 1028.5
20181018135004 53 205 9.0 12.0 0.00 0.00 0.00 38 1028.5
20181018134504 52 186 1.0 10.0 0.00 0.00 0.00 40 1028.4
20181018134004 51 235 3.0 16.0 0.00 0.00 0.00 39 1028.4
20181018133504 51 216 3.0 16.0 0.00 0.00 0.00 39 1028.4
20181018133003 51 264 4.0 16.0 0.00 0.00 0.00 40 1028.4
20181018132504 51 171 5.0 13.0 0.00 0.00 0.00 40 1028.1
20181018132004 51 224 1.0 8.0 0.00 0.00 0.00 42 1028.2
20181018131504 51 225 3.0 9.0 0.00 0.00 0.00 42 1028.4
20181018131004 50 166 2.0 9.0 0.00 0.00 0.00 42 1028.1
20181018130504 51 211 4.0 9.0 0.00 0.00 0.00 42 1028.1
20181018130004 50 196 2.0 8.0 0.00 0.00 0.00 44 1028.4
20181018125503 50 246 3.0 8.0 0.00 0.00 0.00 44 1028.7
20181018125004 49 247 2.0 10.0 0.00 0.00 0.00 46 1028.4
20181018124503 49 235 1.0 10.0 0.00 0.00 0.00 46 1028.6
20181018124004 49 196 5.0 10.0 0.00 0.00 0.00 44 1028.4
20181018123503 49 201 3.0 9.0 0.00 0.00 0.00 44 1028.4
20181018123004 49 215 3.0 8.0 0.00 0.00 0.00 46 1028.1
20181018122504 48 222 0.0 3.0 0.00 0.00 0.00 48 1028.3
20181018122004 47 270 0.0 5.0 0.00 0.00 0.00 52 1028.1
20181018121504 45 225 1.0 7.0 0.00 0.00 0.00 52 1028.1
20181018121004 43 205 2.0 12.0 0.00 0.00 0.00 53 1027.7
20181018120503 42 217 3.0 12.0 0.00 0.00 0.00 53 1027.7
20181018120004 41 206 2.0 8.0 0.00 0.00 0.00 53 1027.7
20181018115505 41 247 4.0 8.0 0.00 0.00 0.00 53 1027.7
20181018115004 41 202 2.0 7.0 0.00 0.00 0.00 54 1027.4
20181018114503 41 225 1.0 7.0 0.00 0.00 0.00 54 1027.4
20181018114004 41 224 3.0 8.0 0.00 0.00 0.00 54 1027.4
20181018113504 41 208 3.0 9.0 0.00 0.00 0.00 54 1027.0
20181018113004 41 248 2.0 9.0 0.00 0.00 0.00 54 1027.0
20181018112504 42 182 3.0 13.0 0.00 0.00 0.00 55 1026.9
20181018112005 42 202 5.0 13.0 0.00 0.00 0.00 55 1026.7
20181018111504 42 315 1.0 8.0 0.00 0.00 0.00 57 1026.7
20181018111004 42 210 2.0 8.0 0.00 0.00 0.00 57 1026.7
20181018110503 41 172 1.0 7.0 0.00 0.00 0.00 57 1026.7
20181018110004 41 222 3.0 8.0 0.00 0.00 0.00 57 1026.4
20181018105503 41 232 2.0 8.0 0.00 0.00 0.00 57 1026.4
20181018105004 41 333 1.0 9.0 0.00 0.00 0.00 58 1026.3
20181018104504 41 240 4.0 9.0 0.00 0.00 0.00 58 1026.0
20181018104004 41 254 0.0 7.0 0.00 0.00 0.00 59 1026.2
20181018103504 41 229 1.0 6.0 0.00 0.00 0.00 60 1026.0
20181018103004 41 266 1.0 8.0 0.00 0.00 0.00 60 1026.0
20181018102503 41 202 1.0 8.0 0.00 0.00 0.00 60 1026.0
20181018102004 41 225 1.0 7.0 0.00 0.00 0.00 61 1026.1
20181018101504 41 216 1.0 7.0 0.00 0.00 0.00 61 1026.0
20181018101003 41 112 0.0 0.0 0.00 0.00 0.00 61 1025.9
20181018100504 41 202 0.0 3.0 0.00 0.00 0.00 61 1025.7
20181018100003 41 202 0.0 3.0 0.00 0.00 0.00 61 1025.7
20181018095504 41 315 0.0 0.0 0.00 0.00 0.00 60 1025.4
20181018095004 41 315 0.0 0.0 0.00 0.00 0.00 60 1025.3
20181018094504 41 315 0.0 1.0 0.00 0.00 0.00 60 1025.7
20181018094004 40 315 0.0 2.0 0.00 0.00 0.00 60 1025.3
20181018093504 40 315 0.0 3.0 0.00 0.00 0.00 59 1025.2
20181018093004 41 315 1.0 5.0 0.00 0.00 0.00 59 1025.0
20181018092505 41 292 1.0 5.0 0.00 0.00 0.00 59 1025.0
20181018092026 41 225 1.0 5.0 0.00 0.00 0.00 58 1024.7
20181018091504 41 243 1.0 6.0 0.00 0.00 0.00 58 1024.7
20181018091004 41 225 1.0 6.0 0.00 0.00 0.00 58 1024.7
20181018090504 41 283 1.0 7.0 0.00 0.00 0.00 58 1024.7
20181018090003 41 270 0.0 7.0 0.00 0.00 0.00 58 1024.7
20181018085504 42 225 0.0 8.0 0.00 0.00 0.00 57 1024.7
20181018085004 42 225 0.0 8.0 0.00 0.00 0.00 57 1024.3
20181018084503 42 270 0.0 7.0 0.00 0.00 0.00 57 1024.0
20181018084004 41 270 0.0 7.0 0.00 0.00 0.00 57 1024.0
20181018083504 41 225 1.0 7.0 0.00 0.00 0.00 57 1024.0
20181018083004 41 222 3.0 8.0 0.00 0.00 0.00 57 1024.0
20181018082504 41 225 1.0 8.0 0.00 0.00 0.00 57 1023.7
20181018082003 41 213 1.0 8.0 0.00 0.00 0.00 57 1023.7
20181018081504 41 202 0.0 6.0 0.00 0.00 0.00 57 1023.7
20181018081004 41 45 0.0 6.0 0.00 0.00 0.00 57 1023.5
20181018080504 41 200 1.0 5.0 0.00 0.00 0.00 56 1023.3
20181018080004 41 13 0.0 3.0 0.00 0.00 0.00 56 1023.3
20181018075503 42 263 0.0 5.0 0.00 0.00 0.00 56 1023.0
20181018075004 42 225 0.0 7.0 0.00 0.00 0.00 56 1023.3
20181018074504 42 202 2.0 7.0 0.00 0.00 0.00 55 1023.3
20181018074005 42 203 0.0 5.0 0.00 0.00 0.00 55 1023.3
20181018073503 42 248 0.0 6.0 0.00 0.00 0.00 55 1023.3
20181018073004 42 241 1.0 7.0 0.00 0.00 0.00 55 1023.3
20181018072504 42 45 0.0 7.0 0.00 0.00 0.00 55 1023.0
20181018072004 42 201 2.0 7.0 0.00 0.00 0.00 55 1023.0
20181018071503 42 212 1.0 7.0 0.00 0.00 0.00 55 1023.0
20181018071004 43 265 2.0 7.0 0.00 0.00 0.00 55 1022.6
20181018070503 43 225 1.0 8.0 0.00 0.00 0.00 54 1022.6
20181018070004 43 225 3.0 8.0 0.00 0.00 0.00 54 1023.0
20181018065504 43 9 1.0 7.0 0.00 0.00 0.00 54 1022.6
20181018065003 43 246 2.0 3.0 0.00 0.00 0.00 54 1023.0
20181018064503 43 244 0.0 7.0 0.00 0.00 0.00 54 1023.0
20181018064004 43 206 1.0 7.0 0.00 0.00 0.00 54 1022.6
20181018063503 43 225 1.0 8.0 0.00 0.00 0.00 54 1022.6
20181018063004 44 133 2.0 8.0 0.00 0.00 0.00 54 1022.4
20181018062504 44 228 2.0 6.0 0.00 0.00 0.00 55 1022.6
20181018062005 44 170 0.0 2.0 0.00 0.00 0.00 56 1022.3
20181018061504 44 180 0.0 3.0 0.00 0.00 0.00 57 1022.3
20181018061004 44 180 0.0 3.0 0.00 0.00 0.00 57 1022.3
20181018060504 45 205 0.0 3.0 0.00 0.00 0.00 58 1022.0
20181018060004 45 248 0.0 3.0 0.00 0.00 0.00 58 1022.0
20181018055503 45 248 1.0 3.0 0.00 0.00 0.00 58 1022.0
20181018055004 45 355 1.0 3.0 0.00 0.00 0.00 59 1022.0
20181018054504 45 240 0.0 3.0 0.00 0.00 0.00 59 1022.0
20181018054004 45 202 0.0 0.0 0.00 0.00 0.00 60 1022.0
20181018053504 45 202 0.0 0.0 0.00 0.00 0.00 60 1022.0
20181018053004 45 202 0.0 1.0 0.00 0.00 0.00 60 1022.0
20181018052504 45 202 0.0 3.0 0.00 0.00 0.00 60 1022.0
20181018052004 45 202 0.0 3.0 0.00 0.00 0.00 60 1022.0
20181018051503 45 208 0.0 7.0 0.00 0.00 0.00 59 1022.0
20181018051004 45 225 0.0 7.0 0.00 0.00 0.00 59 1022.0
20181018050504 45 202 2.0 7.0 0.00 0.00 0.00 60 1021.6
20181018050004 44 291 1.0 5.0 0.00 0.00 0.00 59 1021.6
20181018045504 44 225 1.0 5.0 0.00 0.00 0.00 59 1021.6
20181018045003 44 180 0.0 7.0 0.00 0.00 0.00 59 1021.6
20181018044504 44 211 2.0 7.0 0.00 0.00 0.00 59 1022.0
20181018044004 44 202 1.0 6.0 0.00 0.00 0.00 58 1021.6
20181018043504 44 180 1.0 7.0 0.00 0.00 0.00 58 1021.6
20181018043003 44 225 3.0 7.0 0.00 0.00 0.00 57 1021.6
20181018042504 45 248 0.0 1.0 0.00 0.00 0.00 56 1021.4
20181018042004 45 202 0.0 3.0 0.00 0.00 0.00 55 1021.5
20181018041504 45 182 0.0 7.0 0.00 0.00 0.00 54 1021.6
20181018041003 46 202 0.0 7.0 0.00 0.00 0.00 54 1021.3
20181018040504 46 246 1.0 5.0 0.00 0.00 0.00 54 1021.3
20181018040004 46 206 1.0 5.0 0.00 0.00 0.00 53 1021.3
20181018035503 46 202 0.0 5.0 0.00 0.00 0.00 53 1021.3
20181018035004 46 289 1.0 5.0 0.00 0.00 0.00 52 1020.9
20181018034504 47 135 0.0 3.0 0.00 0.00 0.00 52 1020.9
20181018034004 47 228 0.0 7.0 0.00 0.00 0.00 52 1020.6
20181018033503 47 214 2.0 7.0 0.00 0.00 0.00 51 1020.6
20181018033005 47 225 3.0 7.0 0.00 0.00 0.00 51 1020.6
20181018032504 47 270 0.0 7.0 0.00 0.00 0.00 51 1020.6
20181018032004 47 202 0.0 7.0 0.00 0.00 0.00 50 1020.6
20181018031504 47 225 1.0 7.0 0.00 0.00 0.00 50 1020.3
20181018031004 47 222 2.0 8.0 0.00 0.00 0.00 50 1020.3
20181018030504 48 245 2.0 8.0 0.00 0.00 0.00 51 1020.1
20181018030004 48 191 1.0 5.0 0.00 0.00 0.00 51 1020.3
20181018025503 48 288 2.0 7.0 0.00 0.00 0.00 50 1019.9
20181018025004 48 243 1.0 7.0 0.00 0.00 0.00 50 1019.9
20181018024504 48 218 1.0 6.0 0.00 0.00 0.00 50 1019.6
20181018024004 49 237 1.0 8.0 0.00 0.00 0.00 50 1019.6
20181018023503 49 202 2.0 8.0 0.00 0.00 0.00 50 1019.9
20181018023004 49 296 2.0 7.0 0.00 0.00 0.00 51 1019.6
20181018022504 49 231 0.0 8.0 0.00 0.00 0.00 51 1019.7
20181018022004 49 136 3.0 8.0 0.00 0.00 0.00 51 1019.8
20181018021504 50 213 1.0 10.0 0.00 0.00 0.00 52 1019.3
20181018020504 50 213 1.0 10.0 0.00 0.00 0.00 52 1019.3
20181018020004 50 200 3.0 10.0 0.00 0.00 0.00 52 1019.6
20181018015504 50 201 3.0 9.0 0.00 0.00 0.00 53 1019.2
20181018015004 50 247 1.0 7.0 0.00 0.00 0.00 53 1018.9
20181018014504 50 172 2.0 7.0 0.00 0.00 0.00 53 1018.9
20181018014004 50 233 1.0 9.0 0.00 0.00 0.00 53 1018.6
20181018013504 50 233 2.0 9.0 0.00 0.00 0.00 53 1018.6
20181018013003 50 215 1.0 7.0 0.00 0.00 0.00 53 1018.6
20181018012504 50 205 3.0 7.0 0.00 0.00 0.00 53 1018.6
20181018012004 51 265 2.0 7.0 0.00 0.00 0.00 53 1018.2
20181018011504 51 225 1.0 7.0 0.00 0.00 0.00 52 1018.2
20181018011004 51 243 2.0 7.0 0.00 0.00 0.00 52 1018.1
20181018010504 51 241 2.0 7.0 0.00 0.00 0.00 51 1017.9
20181018010003 51 239 2.0 7.0 0.00 0.00 0.00 51 1017.6
20181018005504 51 225 3.0 7.0 0.00 0.00 0.00 51 1017.8
20181018005004 52 276 2.0 15.0 0.00 0.00 0.00 51 1017.6
20181018004504 52 206 3.0 15.0 0.00 0.00 0.00 52 1017.6
20181018004004 52 340 0.0 8.0 0.00 0.00 0.00 52 1017.5
20181018003504 52 233 2.0 8.0 0.00 0.00 0.00 52 1017.5
20181018003004 52 223 5.0 8.0 0.00 0.00 0.00 53 1017.2
20181018002504 52 256 1.0 6.0 0.00 0.00 0.00 54 1017.2
20181018002003 52 302 1.0 7.0 0.00 0.00 0.00 54 1017.2
20181018001503 52 225 3.0 7.0 0.00 0.00 0.00 54 1017.2
20181018001003 52 222 1.0 8.0 0.00 0.00 0.00 54 1016.9
20181018000503 53 292 2.0 8.0 0.00 0.00 0.00 54 1017.2
20181018000004 53 195 1.0 7.0 0.00 0.00 0.00 54 1016.9
20181017235504 53 229 2.0 7.0 0.00 0.00 0.00 54 1016.9
20181017235004 53 307 1.0 7.0 0.00 0.00 0.00 54 1016.9
20181017234504 53 244 2.0 7.0 0.00 0.00 0.00 54 1016.5
20181017234004 53 198 2.0 7.0 0.00 0.00 0.00 54 1016.2
20181017233503 53 242 1.0 6.0 0.00 0.00 0.00 54 1016.2
20181017233004 53 202 1.0 6.0 0.00 0.00 0.00 54 1016.2
20181017232503 54 202 0.0 6.0 0.00 0.00 0.00 54 1016.2
20181017232004 54 225 3.0 6.0 0.00 0.00 0.00 54 1015.9
20181017231504 54 225 2.0 6.0 0.00 0.00 0.00 54 1015.9
20181017231004 54 189 1.0 7.0 0.00 0.00 0.00 54 1015.5
20181017230504 54 209 1.0 7.0 0.00 0.00 0.00 55 1015.5
20181017230004 55 202 2.0 9.0 0.00 0.00 0.00 55 1015.5
20181017225504 55 182 2.0 9.0 0.00 0.00 0.00 55 1015.2
20181017225004 55 225 3.0 8.0 0.00 0.00 0.00 55 1015.2
20181017224504 55 265 1.0 7.0 0.00 0.00 0.00 55 1014.9
20181017224004 55 225 1.0 8.0 0.00 0.00 0.00 54 1014.5
20181017223504 56 251 5.0 8.0 0.00 0.00 0.00 54 1014.5
20181017223004 56 228 2.0 8.0 0.00 0.00 0.00 53 1014.5
20181017222504 56 210 3.0 8.0 0.00 0.00 0.00 51 1014.2
20181017222004 57 248 1.0 8.0 0.00 0.00 0.00 50 1013.9
20181017221503 57 252 2.0 8.0 0.00 0.00 0.00 50 1014.2
20181017221004 57 247 2.0 7.0 0.00 0.00 0.00 50 1013.8
20181017220504 57 189 1.0 8.0 0.00 0.00 0.00 50 1013.5
20181017220004 57 226 1.0 8.0 0.00 0.00 0.00 49 1013.5
20181017215504 58 204 1.0 7.0 0.00 0.00 0.00 49 1013.5
20181017215004 58 182 2.0 12.0 0.00 0.00 0.00 48 1013.4
20181017214503 59 240 0.0 12.0 0.00 0.00 0.00 47 1013.2
20181017214004 59 213 3.0 12.0 0.00 0.00 0.00 47 1013.2
20181017213504 59 274 2.0 9.0 0.00 0.00 0.00 46 1012.8
20181017213004 60 243 2.0 8.0 0.00 0.00 0.00 46 1012.8
20181017212503 60 248 2.0 10.0 0.00 0.00 0.00 45 1012.8
20181017212003 60 336 2.0 10.0 0.00 0.00 0.00 44 1012.8
20181017211504 61 262 3.0 12.0 0.00 0.00 0.00 44 1012.5
20181017211004 61 230 3.0 12.0 0.00 0.00 0.00 43 1012.5
20181017210504 61 228 2.0 12.0 0.00 0.00 0.00 44 1012.5
20181017210004 62 183 2.0 15.0 0.00 0.00 0.00 44 1012.5
20181017205504 62 218 2.0 15.0 0.00 0.00 0.00 43 1012.1
20181017205004 62 190 2.0 15.0 0.00 0.00 0.00 44 1012.4
20181017204504 62 244 5.0 12.0 0.00 0.00 0.00 43 1012.1
20181017204004 62 250 2.0 12.0 0.00 0.00 0.00 43 1012.1
20181017203503 62 193 1.0 9.0 0.00 0.00 0.00 43 1012.1
20181017203004 62 247 2.0 8.0 0.00 0.00 0.00 43 1012.1
20181017202504 62 228 4.0 8.0 0.00 0.00 0.00 42 1011.8
20181017202004 62 198 3.0 7.0 0.00 0.00 0.00 43 1012.1
20181017201504 62 66 1.0 8.0 0.00 0.00 0.00 44 1011.8
20181017201004 62 293 3.0 8.0 0.00 0.00 0.00 44 1011.9